createdAt,value
2018-04-24T00:00:38.768Z,940.17
2018-04-24T00:01:38.770Z,940.20
2018-04-24T00:02:38.770Z,940.16
2018-04-24T00:03:38.771Z,940.17
2018-04-24T00:04:38.773Z,940.15
2018-04-24T00:05:38.774Z,940.16
2018-04-24T00:06:38.776Z,940.14
2018-04-24T00:07:38.776Z,940.15
2018-04-24T00:08:38.779Z,940.19
2018-04-24T00:09:38.783Z,940.16
2018-04-24T00:10:38.780Z,940.12
2018-04-24T00:11:38.782Z,940.14
2018-04-24T00:12:38.781Z,940.08
2018-04-24T00:13:38.784Z,940.08
2018-04-24T00:14:38.784Z,940.07
2018-04-24T00:15:38.786Z,940.03
2018-04-24T00:16:38.787Z,940.00
2018-04-24T00:17:38.789Z,940.06
2018-04-24T00:18:38.789Z,940.01
2018-04-24T00:19:38.789Z,940.00
2018-04-24T00:20:38.792Z,939.96
2018-04-24T00:21:38.792Z,939.95
2018-04-24T00:22:38.794Z,939.97
2018-04-24T00:23:38.794Z,939.95
2018-04-24T00:24:38.797Z,939.92
2018-04-24T00:25:38.797Z,939.91
2018-04-24T00:26:38.797Z,939.93
2018-04-24T00:27:38.799Z,939.93
2018-04-24T00:28:38.801Z,939.89
2018-04-24T00:29:38.801Z,939.89
2018-04-24T00:30:38.801Z,939.86
2018-04-24T00:31:38.802Z,939.86
2018-04-24T00:32:38.807Z,939.89
2018-04-24T00:33:38.804Z,939.87
2018-04-24T00:34:38.805Z,939.90
2018-04-24T00:35:38.808Z,939.85
2018-04-24T00:36:38.810Z,939.84
2018-04-24T00:37:38.810Z,939.80
2018-04-24T00:38:38.810Z,939.77
2018-04-24T00:39:38.813Z,939.79
2018-04-24T00:40:38.812Z,939.78
2018-04-24T00:41:38.815Z,939.79
2018-04-24T00:42:38.816Z,939.76
2018-04-24T00:43:38.815Z,939.77
2018-04-24T00:44:38.817Z,939.79
2018-04-24T00:45:38.861Z,939.83
2018-04-24T00:46:38.820Z,939.83
2018-04-24T00:47:38.820Z,939.80
2018-04-24T00:48:38.821Z,939.80
2018-04-24T00:49:38.823Z,939.82
2018-04-24T00:50:38.824Z,939.82
2018-04-24T00:51:38.826Z,939.80
2018-04-24T00:52:38.827Z,939.84
2018-04-24T00:53:38.828Z,939.84
2018-04-24T00:54:38.826Z,939.87
2018-04-24T00:55:38.830Z,939.88
2018-04-24T00:56:38.830Z,939.89
2018-04-24T00:57:38.839Z,939.91
2018-04-24T00:58:38.831Z,939.92
2018-04-24T00:59:38.834Z,939.93
2018-04-24T01:00:38.834Z,939.93
2018-04-24T01:01:38.835Z,939.97
2018-04-24T01:02:38.837Z,939.96
2018-04-24T01:03:38.836Z,939.97
2018-04-24T01:04:38.838Z,939.98
2018-04-24T01:05:38.839Z,939.99
2018-04-24T01:06:38.894Z,939.99
2018-04-24T01:07:38.841Z,940.00
2018-04-24T01:08:38.842Z,939.97
2018-04-24T01:09:38.844Z,939.98
2018-04-24T01:10:38.843Z,939.96
2018-04-24T01:11:38.846Z,940.01
2018-04-24T01:12:38.847Z,940.04
2018-04-24T01:13:38.848Z,940.02
2018-04-24T01:14:38.850Z,940.05
2018-04-24T01:15:38.848Z,940.08
2018-04-24T01:16:38.852Z,940.03
2018-04-24T01:17:38.851Z,939.98
2018-04-24T01:18:38.852Z,939.98
2018-04-24T01:19:38.853Z,940.02
2018-04-24T01:20:38.855Z,940.02
2018-04-24T01:21:38.855Z,940.03
2018-04-24T01:22:38.855Z,940.05
2018-04-24T01:23:38.858Z,940.03
2018-04-24T01:24:38.858Z,940.07
2018-04-24T01:25:38.865Z,940.09
2018-04-24T01:26:38.860Z,940.13
2018-04-24T01:27:38.860Z,940.10
2018-04-24T01:28:38.865Z,940.11
2018-04-24T01:29:38.863Z,940.10
2018-04-24T01:30:38.862Z,940.10
2018-04-24T01:31:38.865Z,940.08
2018-04-24T01:32:38.864Z,940.12
2018-04-24T01:33:38.867Z,940.14
2018-04-24T01:34:38.867Z,940.17
2018-04-24T01:35:38.868Z,940.15
2018-04-24T01:36:38.869Z,940.17
2018-04-24T01:37:38.874Z,940.18
2018-04-24T01:38:38.872Z,940.22
2018-04-24T01:39:38.871Z,940.18
2018-04-24T01:40:38.874Z,940.21
2018-04-24T01:41:38.874Z,940.20
2018-04-24T01:42:38.874Z,940.22
2018-04-24T01:43:38.877Z,940.23
2018-04-24T01:44:38.878Z,940.26
2018-04-24T01:45:38.882Z,940.26
2018-04-24T01:46:38.879Z,940.27
2018-04-24T01:47:38.878Z,940.31
2018-04-24T01:48:38.880Z,940.31
2018-04-24T01:49:38.881Z,940.30
2018-04-24T01:50:38.886Z,940.31
2018-04-24T01:51:38.882Z,940.34
2018-04-24T01:52:38.885Z,940.34
2018-04-24T01:53:38.885Z,940.40
2018-04-24T01:54:38.885Z,940.35
2018-04-24T01:55:38.886Z,940.39
2018-04-24T01:56:38.887Z,940.38
2018-04-24T01:57:38.890Z,940.36
2018-04-24T01:58:38.890Z,940.35
2018-04-24T01:59:38.891Z,940.37
2018-04-24T02:00:38.893Z,940.38
2018-04-24T02:01:38.892Z,940.41
2018-04-24T02:02:38.893Z,940.36
2018-04-24T02:03:38.894Z,940.38
2018-04-24T02:04:38.897Z,940.36
2018-04-24T02:05:38.895Z,940.37
2018-04-24T02:06:38.896Z,940.36
2018-04-24T02:07:38.901Z,940.37
2018-04-24T02:08:38.898Z,940.37
2018-04-24T02:09:38.900Z,940.40
2018-04-24T02:10:38.903Z,940.36
2018-04-24T02:11:38.902Z,940.38
2018-04-24T02:12:38.903Z,940.36
2018-04-24T02:13:38.903Z,940.36
2018-04-24T02:14:38.904Z,940.36
2018-04-24T02:15:38.904Z,940.35
2018-04-24T02:16:38.906Z,940.36
2018-04-24T02:17:38.906Z,940.34
2018-04-24T02:18:38.908Z,940.35
2018-04-24T02:19:38.910Z,940.32
2018-04-24T02:20:38.910Z,940.34
2018-04-24T02:21:38.911Z,940.35
2018-04-24T02:22:38.945Z,940.34
2018-04-24T02:23:38.911Z,940.34
2018-04-24T02:24:38.912Z,940.38
2018-04-24T02:25:38.913Z,940.36
2018-04-24T02:26:38.915Z,940.37
2018-04-24T02:27:38.916Z,940.34
2018-04-24T02:28:38.918Z,940.37
2018-04-24T02:29:38.919Z,940.33
2018-04-24T02:30:38.919Z,940.33
2018-04-24T02:31:38.919Z,940.35
2018-04-24T02:32:38.920Z,940.35
2018-04-24T02:33:38.933Z,940.38
2018-04-24T02:34:38.921Z,940.38
2018-04-24T02:35:38.924Z,940.38
2018-04-24T02:36:38.924Z,940.39
2018-04-24T02:37:38.928Z,940.39
2018-04-24T02:38:38.926Z,940.36
2018-04-24T02:39:38.926Z,940.36
2018-04-24T02:40:38.929Z,940.38
2018-04-24T02:41:38.931Z,940.39
2018-04-24T02:42:38.930Z,940.38
2018-04-24T02:43:38.929Z,940.38
2018-04-24T02:44:38.930Z,940.42
2018-04-24T02:45:38.931Z,940.41
2018-04-24T02:46:38.931Z,940.37
2018-04-24T02:47:38.933Z,940.42
2018-04-24T02:48:38.933Z,940.39
2018-04-24T02:49:38.935Z,940.38
2018-04-24T02:50:38.935Z,940.33
2018-04-24T02:51:38.936Z,940.40
2018-04-24T02:52:38.938Z,940.39
2018-04-24T02:53:38.936Z,940.41
2018-04-24T02:54:38.937Z,940.42
2018-04-24T02:55:38.942Z,940.41
2018-04-24T02:56:38.944Z,940.43
2018-04-24T02:57:38.941Z,940.45
2018-04-24T02:58:38.941Z,940.42
2018-04-24T02:59:38.944Z,940.40
2018-04-24T03:00:38.942Z,940.40
2018-04-24T03:01:38.943Z,940.40
2018-04-24T03:02:38.946Z,940.39
2018-04-24T03:03:38.943Z,940.39
2018-04-24T03:04:38.945Z,940.39
2018-04-24T03:05:38.945Z,940.43
2018-04-24T03:06:38.946Z,940.44
2018-04-24T03:07:38.953Z,940.43
2018-04-24T03:08:38.948Z,940.41
2018-04-24T03:09:38.950Z,940.40
2018-04-24T03:10:38.949Z,940.36
2018-04-24T03:11:38.951Z,940.32
2018-04-24T03:12:38.951Z,940.38
2018-04-24T03:13:38.953Z,940.36
2018-04-24T03:14:38.953Z,940.35
2018-04-24T03:15:38.954Z,940.33
2018-04-24T03:16:38.954Z,940.39
2018-04-24T03:17:38.955Z,940.35
2018-04-24T03:18:38.955Z,940.38
2018-04-24T03:19:38.957Z,940.34
2018-04-24T03:20:39.035Z,940.33
2018-04-24T03:21:38.957Z,940.36
2018-04-24T03:22:38.958Z,940.36
2018-04-24T03:23:38.961Z,940.38
2018-04-24T03:24:38.960Z,940.34
2018-04-24T03:25:38.967Z,940.40
2018-04-24T03:26:38.963Z,940.40
2018-04-24T03:27:38.962Z,940.39
2018-04-24T03:28:38.964Z,940.39
2018-04-24T03:29:38.965Z,940.37
2018-04-24T03:30:38.965Z,940.35
2018-04-24T03:31:38.968Z,940.34
2018-04-24T03:32:38.968Z,940.38
2018-04-24T03:33:38.969Z,940.36
2018-04-24T03:34:38.969Z,940.37
2018-04-24T03:35:38.971Z,940.37
2018-04-24T03:36:38.971Z,940.38
2018-04-24T03:37:38.972Z,940.38
2018-04-24T03:38:38.972Z,940.37
2018-04-24T03:39:38.973Z,940.38
2018-04-24T03:40:38.976Z,940.34
2018-04-24T03:41:38.977Z,940.35
2018-04-24T03:42:38.975Z,940.36
2018-04-24T03:43:38.976Z,940.38
2018-04-24T03:44:38.977Z,940.39
2018-04-24T03:45:38.980Z,940.35
2018-04-24T03:46:38.979Z,940.35
2018-04-24T03:47:38.981Z,940.35
2018-04-24T03:48:38.983Z,940.30
2018-04-24T03:49:38.982Z,940.37
2018-04-24T03:50:38.983Z,940.33
2018-04-24T03:51:38.984Z,940.33
2018-04-24T03:52:38.985Z,940.38
2018-04-24T03:53:38.985Z,940.37
2018-04-24T03:54:38.985Z,940.34
2018-04-24T03:55:38.986Z,940.34
2018-04-24T03:56:38.988Z,940.33
2018-04-24T03:57:38.989Z,940.37
2018-04-24T03:58:38.988Z,940.38
2018-04-24T03:59:38.988Z,940.35
2018-04-24T04:00:38.991Z,940.32
2018-04-24T04:01:38.991Z,940.34
2018-04-24T04:02:38.995Z,940.34
2018-04-24T04:03:38.992Z,940.34
2018-04-24T04:04:38.991Z,940.36
2018-04-24T04:05:38.993Z,940.35
2018-04-24T04:06:38.991Z,940.35
2018-04-24T04:07:38.996Z,940.35
2018-04-24T04:08:38.995Z,940.33
2018-04-24T04:09:38.996Z,940.36
2018-04-24T04:10:38.994Z,940.40
2018-04-24T04:11:38.997Z,940.38
2018-04-24T04:12:38.995Z,940.40
2018-04-24T04:13:38.997Z,940.41
2018-04-24T04:14:38.995Z,940.42
2018-04-24T04:15:38.999Z,940.40
2018-04-24T04:16:38.998Z,940.41
2018-04-24T04:17:38.999Z,940.45
2018-04-24T04:18:38.997Z,940.43
2018-04-24T04:19:38.999Z,940.43
2018-04-24T04:20:38.998Z,940.42
2018-04-24T04:21:38.999Z,940.45
2018-04-24T04:22:38.998Z,940.42
2018-04-24T04:23:38.999Z,940.42
2018-04-24T04:24:39.001Z,940.43
2018-04-24T04:25:39.000Z,940.39
2018-04-24T04:26:39.000Z,940.45
2018-04-24T04:27:39.000Z,940.45
2018-04-24T04:28:39.000Z,940.44
2018-04-24T04:29:39.002Z,940.46
2018-04-24T04:30:39.001Z,940.49
2018-04-24T04:31:39.000Z,940.48
2018-04-24T04:32:39.002Z,940.51
2018-04-24T04:33:39.002Z,940.50
2018-04-24T04:34:39.002Z,940.52
2018-04-24T04:35:39.002Z,940.54
2018-04-24T04:36:39.004Z,940.55
2018-04-24T04:37:39.004Z,940.56
2018-04-24T04:38:39.003Z,940.58
2018-04-24T04:39:39.005Z,940.58
2018-04-24T04:40:39.006Z,940.57
2018-04-24T04:41:39.007Z,940.61
2018-04-24T04:42:39.005Z,940.61
2018-04-24T04:43:39.008Z,940.64
2018-04-24T04:44:39.007Z,940.64
2018-04-24T04:45:39.007Z,940.67
2018-04-24T04:46:39.008Z,940.68
2018-04-24T04:47:39.009Z,940.65
2018-04-24T04:48:39.010Z,940.68
2018-04-24T04:49:39.012Z,940.68
2018-04-24T04:50:39.011Z,940.68
2018-04-24T04:51:39.014Z,940.70
2018-04-24T04:52:39.012Z,940.70
2018-04-24T04:53:39.014Z,940.71
2018-04-24T04:54:39.015Z,940.70
2018-04-24T04:55:39.014Z,940.71
2018-04-24T04:56:39.015Z,940.69
2018-04-24T04:57:39.019Z,940.69
2018-04-24T04:58:39.015Z,940.69
2018-04-24T04:59:39.018Z,940.70
2018-04-24T05:00:39.020Z,940.73
2018-04-24T05:01:39.019Z,940.77
2018-04-24T05:02:39.020Z,940.78
2018-04-24T05:03:39.019Z,940.79
2018-04-24T05:04:39.022Z,940.81
2018-04-24T05:05:39.021Z,940.80
2018-04-24T05:06:39.023Z,940.82
2018-04-24T05:07:39.025Z,940.80
2018-04-24T05:08:39.022Z,940.86
2018-04-24T05:09:39.025Z,940.82
2018-04-24T05:10:39.023Z,940.82
2018-04-24T05:11:39.025Z,940.81
2018-04-24T05:12:39.025Z,940.81
2018-04-24T05:13:39.027Z,940.81
2018-04-24T05:14:39.027Z,940.82
2018-04-24T05:15:39.027Z,940.86
2018-04-24T05:16:39.028Z,940.81
2018-04-24T05:17:39.029Z,940.83
2018-04-24T05:18:39.030Z,940.81
2018-04-24T05:19:39.031Z,940.82
2018-04-24T05:20:39.031Z,940.81
2018-04-24T05:21:39.033Z,940.84
2018-04-24T05:22:39.032Z,940.86
2018-04-24T05:23:39.033Z,940.85
2018-04-24T05:24:39.034Z,940.91
2018-04-24T05:25:39.034Z,940.92
2018-04-24T05:26:39.128Z,940.93
2018-04-24T05:27:39.036Z,940.92
2018-04-24T05:28:39.037Z,940.95
2018-04-24T05:29:39.038Z,940.95
2018-04-24T05:30:39.037Z,940.92
2018-04-24T05:31:39.040Z,940.92
2018-04-24T05:32:39.039Z,940.91
2018-04-24T05:33:39.040Z,940.92
2018-04-24T05:34:39.042Z,940.92
2018-04-24T05:35:39.059Z,940.93
2018-04-24T05:36:39.044Z,940.92
2018-04-24T05:37:39.043Z,940.94
2018-04-24T05:38:39.049Z,940.90
2018-04-24T05:39:39.045Z,940.92
2018-04-24T05:40:39.044Z,940.91
2018-04-24T05:41:39.046Z,940.88
2018-04-24T05:42:39.045Z,940.87
2018-04-24T05:43:39.046Z,940.90
2018-04-24T05:44:39.048Z,940.89
2018-04-24T05:45:39.047Z,940.91
2018-04-24T05:46:39.048Z,940.92
2018-04-24T05:47:39.048Z,940.91
2018-04-24T05:48:39.050Z,940.88
2018-04-24T05:49:39.050Z,940.87
2018-04-24T05:50:39.167Z,940.91
2018-04-24T05:51:39.073Z,940.90
2018-04-24T05:52:39.083Z,940.92
2018-04-24T05:53:39.052Z,940.87
2018-04-24T05:54:39.053Z,940.91
2018-04-24T05:55:39.056Z,940.88
2018-04-24T05:56:39.055Z,940.91
2018-04-24T05:57:39.054Z,940.92
2018-04-24T05:58:39.054Z,940.91
2018-04-24T05:59:39.055Z,940.87
2018-04-24T06:00:39.179Z,940.85
2018-04-24T06:01:39.058Z,940.85
2018-04-24T06:02:39.056Z,940.88
2018-04-24T06:03:39.056Z,940.89
2018-04-24T06:04:39.057Z,940.88
2018-04-24T06:05:39.058Z,940.89
2018-04-24T06:06:39.059Z,940.92
2018-04-24T06:07:39.091Z,940.92
2018-04-24T06:08:39.109Z,940.92
2018-04-24T06:09:39.060Z,940.90
2018-04-24T06:10:39.061Z,940.94
2018-04-24T06:11:39.064Z,940.89
2018-04-24T06:12:39.064Z,940.92
2018-04-24T06:13:39.147Z,940.96
2018-04-24T06:14:39.095Z,940.94
2018-04-24T06:15:39.093Z,940.96
2018-04-24T06:16:39.126Z,940.93
2018-04-24T06:17:39.069Z,940.94
2018-04-24T06:18:39.073Z,940.90
2018-04-24T06:19:39.069Z,940.92
2018-04-24T06:20:39.073Z,940.88
2018-04-24T06:21:39.074Z,940.90
2018-04-24T06:22:39.074Z,940.91
2018-04-24T06:23:39.075Z,940.93
2018-04-24T06:24:39.076Z,940.95
2018-04-24T06:25:39.129Z,940.93
2018-04-24T06:26:39.079Z,940.91
2018-04-24T06:27:39.080Z,940.92
2018-04-24T06:28:39.193Z,940.86
2018-04-24T06:29:39.085Z,940.84
2018-04-24T06:30:39.086Z,940.87
2018-04-24T06:31:39.087Z,940.90
2018-04-24T06:32:39.090Z,940.89
2018-04-24T06:33:39.091Z,940.90
2018-04-24T06:34:39.091Z,940.90
2018-04-24T06:35:39.097Z,940.88
2018-04-24T06:36:39.095Z,940.83
2018-04-24T06:37:39.097Z,940.82
2018-04-24T06:38:39.098Z,940.83
2018-04-24T06:39:39.099Z,940.79
2018-04-24T06:40:39.103Z,940.80
2018-04-24T06:41:39.104Z,940.76
2018-04-24T06:42:39.106Z,940.81
2018-04-24T06:43:39.112Z,940.89
2018-04-24T06:44:39.111Z,941.11
2018-04-24T06:45:39.112Z,941.18
2018-04-24T06:46:39.116Z,941.19
2018-04-24T06:47:39.147Z,941.21
2018-04-24T06:48:39.123Z,941.27
2018-04-24T06:49:39.126Z,941.30
2018-04-24T06:50:39.133Z,941.32
2018-04-24T06:51:39.139Z,941.37
2018-04-24T06:52:39.147Z,941.36
2018-04-24T06:53:39.154Z,941.40
2018-04-24T06:54:39.162Z,941.43
2018-04-24T06:55:39.170Z,941.38
2018-04-24T06:56:39.180Z,941.07
2018-04-24T06:57:39.188Z,941.21
2018-04-24T06:58:39.197Z,941.25
2018-04-24T06:59:39.212Z,941.32
2018-04-24T07:00:39.239Z,941.35
2018-04-24T07:01:39.232Z,941.34
2018-04-24T07:02:39.325Z,941.36
2018-04-24T07:03:39.248Z,941.37
2018-04-24T07:04:39.254Z,941.32
2018-04-24T07:05:39.264Z,941.26
2018-04-24T07:06:39.273Z,941.20
2018-04-24T07:07:39.282Z,941.10
2018-04-24T07:08:39.291Z,941.13
2018-04-24T07:09:39.302Z,941.13
2018-04-24T07:10:39.442Z,941.08
2018-04-24T07:11:39.320Z,941.09
2018-04-24T07:12:39.523Z,941.10
2018-04-24T07:13:39.337Z,941.09
2018-04-24T07:14:39.345Z,941.09
2018-04-24T07:15:39.356Z,941.20
2018-04-24T07:16:39.365Z,941.13
2018-04-24T07:17:39.374Z,941.13
2018-04-24T07:18:39.378Z,941.12
2018-04-24T07:19:39.387Z,941.13
2018-04-24T07:20:39.397Z,941.11
2018-04-24T07:21:39.401Z,941.08
2018-04-24T07:22:39.410Z,941.07
2018-04-24T07:23:39.417Z,941.07
2018-04-24T07:24:39.424Z,941.08
2018-04-24T07:25:39.433Z,941.11
2018-04-24T07:26:39.438Z,941.07
2018-04-24T07:27:39.449Z,941.09
2018-04-24T07:28:39.539Z,941.07
2018-04-24T07:29:39.517Z,941.10
2018-04-24T07:30:39.466Z,941.15
2018-04-24T07:31:39.473Z,941.11
2018-04-24T07:32:39.480Z,941.13
2018-04-24T07:33:39.486Z,941.10
2018-04-24T07:34:39.494Z,941.12
2018-04-24T07:35:39.499Z,941.10
2018-04-24T07:36:39.507Z,941.10
2018-04-24T07:37:39.514Z,941.10
2018-04-24T07:38:39.519Z,941.12
2018-04-24T07:39:39.525Z,941.12
2018-04-24T07:40:39.533Z,941.17
2018-04-24T07:41:39.537Z,941.19
2018-04-24T07:42:39.542Z,941.20
2018-04-24T07:43:39.557Z,941.17
2018-04-24T07:44:39.576Z,941.19
2018-04-24T07:45:39.563Z,941.15
2018-04-24T07:46:39.604Z,941.15
2018-04-24T07:47:39.581Z,941.14
2018-04-24T07:48:39.582Z,941.14
2018-04-24T07:49:39.592Z,941.18
2018-04-24T07:50:39.595Z,941.17
2018-04-24T07:51:39.602Z,941.19
2018-04-24T07:52:39.610Z,941.16
2018-04-24T07:53:39.618Z,941.20
2018-04-24T07:54:39.623Z,941.23
2018-04-24T07:55:39.633Z,941.22
2018-04-24T07:56:39.638Z,941.29
2018-04-24T07:57:40.000Z,941.37
2018-04-24T07:58:39.651Z,941.38
2018-04-24T07:59:39.666Z,941.30
2018-04-24T08:00:39.667Z,941.24
2018-04-24T08:01:39.677Z,941.21
2018-04-24T08:02:39.683Z,941.30
2018-04-24T08:03:39.691Z,941.38
2018-04-24T08:04:39.699Z,941.35
2018-04-24T08:05:39.818Z,941.28
2018-04-24T08:06:39.714Z,941.27
2018-04-24T08:07:39.723Z,941.29
2018-04-24T08:08:39.733Z,941.25
2018-04-24T08:09:39.741Z,941.23
2018-04-24T08:10:39.749Z,941.29
2018-04-24T08:11:39.759Z,941.34
2018-04-24T08:12:39.767Z,941.34
2018-04-24T08:13:39.775Z,941.27
2018-04-24T08:14:39.783Z,941.32
2018-04-24T08:15:39.793Z,941.36
2018-04-24T08:16:39.974Z,941.38
2018-04-24T08:17:39.812Z,941.36
2018-04-24T08:18:39.826Z,941.35
2018-04-24T08:19:39.833Z,941.35
2018-04-24T08:20:39.846Z,941.33
2018-04-24T08:21:39.857Z,941.28
2018-04-24T08:22:39.869Z,941.25
2018-04-24T08:23:39.988Z,941.21
2018-04-24T08:24:39.893Z,941.24
2018-04-24T08:25:39.906Z,941.23
2018-04-24T08:26:39.919Z,941.21
2018-04-24T08:27:39.931Z,941.19
2018-04-24T08:28:39.944Z,941.18
2018-04-24T08:29:39.956Z,941.16
2018-04-24T08:30:39.972Z,941.17
2018-04-24T08:31:39.979Z,941.15
2018-04-24T08:32:39.993Z,941.14
2018-04-24T08:33:40.078Z,941.13
2018-04-24T08:34:40.014Z,941.11
2018-04-24T08:35:40.025Z,941.11
2018-04-24T08:36:40.037Z,941.02
2018-04-24T08:37:40.050Z,941.03
2018-04-24T08:38:40.057Z,940.99
2018-04-24T08:39:40.355Z,940.94
2018-04-24T08:40:40.078Z,940.90
2018-04-24T08:41:40.091Z,940.89
2018-04-24T08:42:40.098Z,940.87
2018-04-24T08:43:40.431Z,940.85
2018-04-24T08:44:40.118Z,940.94
2018-04-24T08:45:40.128Z,940.91
2018-04-24T08:46:40.137Z,940.89
2018-04-24T08:47:40.315Z,940.93
2018-04-24T08:48:40.165Z,940.85
2018-04-24T08:49:40.168Z,940.82
2018-04-24T08:50:40.177Z,940.83
2018-04-24T08:51:40.186Z,940.77
2018-04-24T08:52:40.194Z,940.79
2018-04-24T08:53:40.259Z,940.80
2018-04-24T08:54:40.384Z,940.71
2018-04-24T08:55:40.253Z,940.73
2018-04-24T08:56:40.227Z,940.73
2018-04-24T08:57:40.238Z,940.71
2018-04-24T08:58:40.241Z,940.68
2018-04-24T08:59:40.250Z,940.70
2018-04-24T09:00:40.271Z,940.66
2018-04-24T09:01:40.262Z,940.60
2018-04-24T09:05:00.913Z,940.66
2018-04-24T09:06:01.173Z,940.65
2018-04-24T09:07:00.930Z,940.65
2018-04-24T09:08:00.938Z,940.69
2018-04-24T09:09:00.938Z,940.78
2018-04-24T09:10:00.951Z,940.77
2018-04-24T09:11:00.953Z,940.68
2018-04-24T09:12:00.961Z,940.83
2018-04-24T09:13:00.970Z,940.79
2018-04-24T09:14:01.062Z,940.74
2018-04-24T09:15:00.990Z,940.71
2018-04-24T09:16:00.996Z,940.79
2018-04-24T09:17:01.013Z,940.76
2018-04-24T09:18:01.016Z,940.74
2018-04-24T09:19:01.028Z,940.79
2018-04-24T09:20:01.077Z,940.79
2018-04-24T09:21:01.148Z,940.78
2018-04-24T09:22:01.062Z,940.74
2018-04-24T09:23:01.069Z,940.61
2018-04-24T09:24:01.087Z,940.63
2018-04-24T09:25:01.095Z,940.78
2018-04-24T09:26:01.105Z,940.77
2018-04-24T09:27:01.143Z,940.76
2018-04-24T09:28:01.131Z,940.74
2018-04-24T09:29:01.144Z,940.73
2018-04-24T09:30:01.158Z,940.70
2018-04-24T09:31:01.184Z,940.73
2018-04-24T09:32:01.185Z,940.74
2018-04-24T09:33:01.199Z,940.76
2018-04-24T09:34:01.216Z,940.74
2018-04-24T09:35:01.225Z,940.77
2018-04-24T09:36:01.241Z,940.75
2018-04-24T09:37:01.256Z,940.75
2018-04-24T09:38:01.268Z,940.70
2018-04-24T09:39:01.293Z,940.71
2018-04-24T09:40:01.299Z,940.74
2018-04-24T09:41:01.317Z,940.69
2018-04-24T09:42:01.329Z,940.66
2018-04-24T09:43:01.343Z,940.68
2018-04-24T09:44:01.447Z,940.66
2018-04-24T09:45:01.444Z,940.64
2018-04-24T09:46:01.453Z,940.67
2018-04-24T09:47:01.687Z,940.62
2018-04-24T09:48:01.419Z,940.64
2018-04-24T09:49:01.567Z,940.62
2018-04-24T09:50:01.455Z,940.64
2018-04-24T09:51:01.473Z,940.65
2018-04-24T09:52:01.479Z,940.63
2018-04-24T09:53:01.498Z,940.62
2018-04-24T09:54:01.508Z,940.60
2018-04-24T09:55:01.526Z,940.58
2018-04-24T09:56:01.546Z,940.56
2018-04-24T09:57:01.555Z,940.63
2018-04-24T09:58:01.569Z,940.57
2018-04-24T09:59:01.584Z,940.59
2018-04-24T10:00:01.608Z,940.59
2018-04-24T10:01:01.655Z,940.51
2018-04-24T10:02:01.630Z,940.50
2018-04-24T10:03:01.647Z,940.49
2018-04-24T10:04:01.789Z,940.48
2018-04-24T10:05:01.692Z,940.48
2018-04-24T10:06:01.743Z,940.48
2018-04-24T10:07:01.757Z,940.47
2018-04-24T10:08:01.751Z,940.48
2018-04-24T10:09:01.742Z,940.45
2018-04-24T10:10:01.754Z,940.45
2018-04-24T10:11:01.769Z,940.44
2018-04-24T10:12:01.785Z,940.45
2018-04-24T10:13:01.854Z,940.41
2018-04-24T10:14:01.841Z,940.40
2018-04-24T10:15:01.839Z,940.46
2018-04-24T10:16:01.848Z,940.37
2018-04-24T10:17:01.861Z,940.35
2018-04-24T10:18:01.877Z,940.35
2018-04-24T10:19:01.893Z,940.33
2018-04-24T10:20:01.909Z,940.30
2018-04-24T10:21:01.927Z,940.34
2018-04-24T10:22:01.941Z,940.33
2018-04-24T10:23:01.956Z,940.32
2018-04-24T10:24:01.973Z,940.27
2018-04-24T10:25:01.987Z,940.30
2018-04-24T10:26:02.002Z,940.26
2018-04-24T10:27:02.019Z,940.22
2018-04-24T10:28:02.034Z,940.19
2018-04-24T10:29:02.049Z,940.23
2018-04-24T10:30:02.124Z,940.19
2018-04-24T10:31:02.081Z,940.14
2018-04-24T10:32:02.095Z,940.14
2018-04-24T10:33:02.118Z,940.13
2018-04-24T10:34:02.124Z,940.16
2018-04-24T10:35:02.193Z,940.09
2018-04-24T10:36:02.154Z,940.08
2018-04-24T10:37:02.169Z,940.07
2018-04-24T10:38:02.184Z,940.05
2018-04-24T10:39:02.198Z,940.05
2018-04-24T10:40:02.276Z,940.00
2018-04-24T10:41:02.225Z,939.93
2018-04-24T10:42:02.239Z,939.93
2018-04-24T10:43:02.504Z,939.91
2018-04-24T10:44:02.265Z,939.86
2018-04-24T10:45:02.276Z,939.89
2018-04-24T10:46:02.288Z,939.90
2018-04-24T10:47:02.299Z,939.89
2018-04-24T10:48:02.313Z,939.93
2018-04-24T10:49:02.327Z,939.91
2018-04-24T10:50:02.336Z,939.89
2018-04-24T10:51:02.344Z,939.86
2018-04-24T10:52:02.358Z,939.82
2018-04-24T10:53:02.368Z,939.87
2018-04-24T10:54:02.383Z,939.86
2018-04-24T10:55:02.395Z,939.82
2018-04-24T10:56:02.429Z,939.77
2018-04-24T10:57:02.415Z,939.78
2018-04-24T10:58:02.483Z,939.79
2018-04-24T10:59:02.439Z,939.79
2018-04-24T11:00:02.452Z,939.80
2018-04-24T11:01:02.464Z,939.75
2018-04-24T11:02:02.476Z,939.76
2018-04-24T11:03:02.493Z,939.77
2018-04-24T11:04:02.506Z,939.75
2018-04-24T11:05:02.514Z,939.78
2018-04-24T11:06:02.530Z,939.77
2018-04-24T11:07:02.543Z,939.74
2018-04-24T11:08:02.555Z,939.70
2018-04-24T11:09:02.567Z,939.72
2018-04-24T11:10:02.582Z,939.76
2018-04-24T11:11:02.595Z,939.73
2018-04-24T11:12:02.736Z,939.71
2018-04-24T11:13:02.982Z,939.71
2018-04-24T11:14:02.875Z,939.70
2018-04-24T11:15:02.790Z,939.64
2018-04-24T11:16:02.899Z,939.69
2018-04-24T11:17:02.717Z,939.65
2018-04-24T11:18:02.691Z,939.64
2018-04-24T11:19:02.701Z,939.61
2018-04-24T11:20:02.984Z,939.60
2018-04-24T11:21:02.727Z,939.56
2018-04-24T11:22:02.740Z,939.62
2018-04-24T11:23:02.755Z,939.59
2018-04-24T11:24:02.768Z,939.60
2018-04-24T11:25:02.789Z,939.56
2018-04-24T11:26:02.794Z,939.56
2018-04-24T11:27:03.112Z,939.54
2018-04-24T11:28:02.821Z,939.56
2018-04-24T11:29:03.079Z,939.58
2018-04-24T11:30:02.848Z,939.59
2018-04-24T11:31:02.862Z,939.61
2018-04-24T11:32:02.874Z,939.62
2018-04-24T11:33:02.898Z,939.59
2018-04-24T11:34:02.902Z,939.59
2018-04-24T11:35:02.915Z,939.58
2018-04-24T11:36:02.974Z,939.60
2018-04-24T11:37:02.942Z,939.52
2018-04-24T11:38:03.060Z,939.55
2018-04-24T11:39:03.236Z,939.49
2018-04-24T11:40:03.092Z,939.48
2018-04-24T11:41:03.175Z,939.49
2018-04-24T11:42:03.018Z,939.45
2018-04-24T11:43:03.022Z,939.48
2018-04-24T11:44:03.132Z,939.43
2018-04-24T11:45:03.239Z,939.46
2018-04-24T11:46:03.445Z,939.45
2018-04-24T11:47:03.518Z,939.42
2018-04-24T11:48:03.462Z,939.45
2018-04-24T11:49:03.175Z,939.42
2018-04-24T11:50:03.365Z,939.39
2018-04-24T11:51:03.952Z,939.36
2018-04-24T11:52:03.619Z,939.35
2018-04-24T11:53:03.347Z,939.29
2018-04-24T11:54:03.207Z,939.31
2018-04-24T11:55:03.217Z,939.25
2018-04-24T11:56:03.467Z,939.33
2018-04-24T11:57:03.700Z,939.31
2018-04-24T11:58:03.282Z,939.31
2018-04-24T11:59:03.312Z,939.32
2018-04-24T12:00:03.245Z,939.33
2018-04-24T12:01:03.984Z,939.33
2018-04-24T12:02:03.458Z,939.28
2018-04-24T12:03:03.306Z,939.29
2018-04-24T12:04:03.298Z,939.25
2018-04-24T12:05:03.311Z,939.27
2018-04-24T12:06:03.326Z,939.25
2018-04-24T12:07:03.337Z,939.21
2018-04-24T12:08:03.350Z,939.22
2018-04-24T12:09:03.362Z,939.26
2018-04-24T12:10:03.460Z,939.26
2018-04-24T12:11:03.389Z,939.27
2018-04-24T12:12:03.402Z,939.25
2018-04-24T12:13:03.415Z,939.25
2018-04-24T12:14:03.427Z,939.27
2018-04-24T12:15:03.487Z,939.24
2018-04-24T12:16:03.495Z,939.26
2018-04-24T12:17:03.800Z,939.23
2018-04-24T12:18:03.548Z,939.19
2018-04-24T12:19:03.494Z,939.15
2018-04-24T12:20:03.505Z,939.19
2018-04-24T12:21:03.596Z,939.13
2018-04-24T12:22:03.628Z,939.14
2018-04-24T12:23:03.544Z,939.12
2018-04-24T12:24:03.558Z,939.12
2018-04-24T12:25:03.571Z,939.13
2018-04-24T12:26:03.619Z,939.15
2018-04-24T12:27:03.594Z,939.13
2018-04-24T12:28:03.606Z,939.13
2018-04-24T12:29:03.619Z,939.10
2018-04-24T12:30:03.631Z,939.12
2018-04-24T12:31:03.898Z,939.12